sensor_id;sensor_type;location;lat;lon;timestamp;P1;durP1;ratioP1;P2;durP2;ratioP2
71353;SDS011;59393;51.652;4.864;2022-09-03T00:00:18;5.53;;;2.05;;
71353;SDS011;59393;51.652;4.864;2022-09-03T00:03:05;6.70;;;2.05;;
71353;SDS011;59393;51.652;4.864;2022-09-03T00:05:40;6.03;;;1.80;;
71353;SDS011;59393;51.652;4.864;2022-09-03T00:13:44;5.70;;;1.85;;
71353;SDS011;59393;51.652;4.864;2022-09-03T00:16:12;5.57;;;2.00;;
71353;SDS011;59393;51.652;4.864;2022-09-03T00:18:53;5.60;;;1.90;;
71353;SDS011;59393;51.652;4.864;2022-09-03T00:21:25;5.38;;;1.88;;
71353;SDS011;59393;51.652;4.864;2022-09-03T00:23:52;8.20;;;2.08;;
71353;SDS011;59393;51.652;4.864;2022-09-03T00:26:21;8.15;;;2.22;;
71353;SDS011;59393;51.652;4.864;2022-09-03T00:28:55;8.05;;;2.00;;
71353;SDS011;59393;51.652;4.864;2022-09-03T00:31:34;5.27;;;1.87;;
71353;SDS011;59393;51.652;4.864;2022-09-03T00:36:52;7.22;;;2.03;;
71353;SDS011;59393;51.652;4.864;2022-09-03T00:39:20;7.20;;;1.95;;
71353;SDS011;59393;51.652;4.864;2022-09-03T00:46:52;4.97;;;1.90;;
71353;SDS011;59393;51.652;4.864;2022-09-03T00:52:06;9.32;;;2.22;;
71353;SDS011;59393;51.652;4.864;2022-09-03T00:54:42;6.70;;;2.15;;
71353;SDS011;59393;51.652;4.864;2022-09-03T00:59:56;5.68;;;2.35;;
71353;SDS011;59393;51.652;4.864;2022-09-03T01:02:29;7.65;;;2.33;;
71353;SDS011;59393;51.652;4.864;2022-09-03T01:15:11;4.50;;;2.15;;
71353;SDS011;59393;51.652;4.864;2022-09-03T01:17:45;4.28;;;1.83;;
71353;SDS011;59393;51.652;4.864;2022-09-03T01:20:28;6.20;;;2.03;;
71353;SDS011;59393;51.652;4.864;2022-09-03T01:25:59;8.15;;;2.47;;
71353;SDS011;59393;51.652;4.864;2022-09-03T01:39:27;4.72;;;2.20;;
71353;SDS011;59393;51.652;4.864;2022-09-03T01:47:27;7.45;;;2.30;;
71353;SDS011;59393;51.652;4.864;2022-09-03T01:52:45;6.22;;;1.90;;
71353;SDS011;59393;51.652;4.864;2022-09-03T01:55:32;5.90;;;1.90;;
71353;SDS011;59393;51.652;4.864;2022-09-03T02:00:45;5.97;;;2.13;;
71353;SDS011;59393;51.652;4.864;2022-09-03T02:03:14;4.80;;;2.37;;
71353;SDS011;59393;51.652;4.864;2022-09-03T02:05:42;5.45;;;2.45;;
71353;SDS011;59393;51.652;4.864;2022-09-03T02:08:10;6.90;;;2.33;;
71353;SDS011;59393;51.652;4.864;2022-09-03T02:10:38;16.13;;;2.10;;
71353;SDS011;59393;51.652;4.864;2022-09-03T02:13:11;6.40;;;2.20;;
71353;SDS011;59393;51.652;4.864;2022-09-03T02:15:42;7.13;;;2.23;;
71353;SDS011;59393;51.652;4.864;2022-09-03T02:18:12;7.70;;;2.30;;
71353;SDS011;59393;51.652;4.864;2022-09-03T02:20:39;9.13;;;2.33;;
71353;SDS011;59393;51.652;4.864;2022-09-03T02:23:06;6.60;;;2.60;;
71353;SDS011;59393;51.652;4.864;2022-09-03T02:25:34;6.50;;;2.13;;
71353;SDS011;59393;51.652;4.864;2022-09-03T02:28:00;4.90;;;2.30;;
71353;SDS011;59393;51.652;4.864;2022-09-03T02:30:28;6.53;;;2.33;;
71353;SDS011;59393;51.652;4.864;2022-09-03T02:32:54;8.15;;;2.38;;
71353;SDS011;59393;51.652;4.864;2022-09-03T02:35:20;8.02;;;2.28;;
71353;SDS011;59393;51.652;4.864;2022-09-03T02:37:46;7.57;;;2.13;;
71353;SDS011;59393;51.652;4.864;2022-09-03T02:40:12;7.67;;;2.40;;
71353;SDS011;59393;51.652;4.864;2022-09-03T02:42:39;6.22;;;2.30;;
71353;SDS011;59393;51.652;4.864;2022-09-03T02:47:51;7.18;;;2.90;;
71353;SDS011;59393;51.652;4.864;2022-09-03T02:50:19;6.88;;;2.40;;
71353;SDS011;59393;51.652;4.864;2022-09-03T02:52:45;7.23;;;2.33;;
71353;SDS011;59393;51.652;4.864;2022-09-03T02:55:11;6.90;;;2.97;;
71353;SDS011;59393;51.652;4.864;2022-09-03T02:57:37;8.45;;;2.60;;
71353;SDS011;59393;51.652;4.864;2022-09-03T03:00:03;9.85;;;2.53;;
71353;SDS011;59393;51.652;4.864;2022-09-03T03:02:29;7.35;;;2.63;;
71353;SDS011;59393;51.652;4.864;2022-09-03T03:04:55;8.87;;;2.80;;
71353;SDS011;59393;51.652;4.864;2022-09-03T03:07:21;7.05;;;2.35;;
71353;SDS011;59393;51.652;4.864;2022-09-03T03:09:47;5.82;;;2.55;;
71353;SDS011;59393;51.652;4.864;2022-09-03T03:12:13;9.77;;;2.67;;
71353;SDS011;59393;51.652;4.864;2022-09-03T03:14:41;8.77;;;3.00;;
71353;SDS011;59393;51.652;4.864;2022-09-03T03:17:07;7.77;;;2.77;;
71353;SDS011;59393;51.652;4.864;2022-09-03T03:19:33;6.95;;;2.75;;
71353;SDS011;59393;51.652;4.864;2022-09-03T03:21:59;10.30;;;2.70;;
71353;SDS011;59393;51.652;4.864;2022-09-03T03:24:25;7.20;;;3.08;;
71353;SDS011;59393;51.652;4.864;2022-09-03T03:26:54;5.93;;;2.37;;
71353;SDS011;59393;51.652;4.864;2022-09-03T03:29:22;6.70;;;2.77;;
71353;SDS011;59393;51.652;4.864;2022-09-03T03:31:49;6.97;;;2.53;;
71353;SDS011;59393;51.652;4.864;2022-09-03T03:34:15;7.85;;;2.80;;
71353;SDS011;59393;51.652;4.864;2022-09-03T03:36:41;7.55;;;2.72;;
71353;SDS011;59393;51.652;4.864;2022-09-03T03:39:07;6.70;;;2.97;;
71353;SDS011;59393;51.652;4.864;2022-09-03T03:41:33;5.10;;;2.50;;
71353;SDS011;59393;51.652;4.864;2022-09-03T03:44:03;7.93;;;2.85;;
71353;SDS011;59393;51.652;4.864;2022-09-03T03:46:30;7.72;;;2.42;;
71353;SDS011;59393;51.652;4.864;2022-09-03T03:48:57;9.82;;;3.03;;
71353;SDS011;59393;51.652;4.864;2022-09-03T03:51:23;7.37;;;2.70;;
71353;SDS011;59393;51.652;4.864;2022-09-03T03:53:52;6.90;;;3.00;;
71353;SDS011;59393;51.652;4.864;2022-09-03T03:56:18;9.55;;;2.42;;
71353;SDS011;59393;51.652;4.864;2022-09-03T03:58:44;8.25;;;2.97;;
71353;SDS011;59393;51.652;4.864;2022-09-03T04:01:13;6.50;;;2.95;;
71353;SDS011;59393;51.652;4.864;2022-09-03T04:03:39;7.03;;;3.00;;
71353;SDS011;59393;51.652;4.864;2022-09-03T04:06:06;7.53;;;3.85;;
71353;SDS011;59393;51.652;4.864;2022-09-03T04:08:33;6.38;;;2.70;;
71353;SDS011;59393;51.652;4.864;2022-09-03T04:11:00;7.70;;;3.35;;
71353;SDS011;59393;51.652;4.864;2022-09-03T04:13:30;6.75;;;2.67;;
71353;SDS011;59393;51.652;4.864;2022-09-03T04:16:03;8.83;;;2.80;;
71353;SDS011;59393;51.652;4.864;2022-09-03T04:18:30;6.18;;;2.70;;
71353;SDS011;59393;51.652;4.864;2022-09-03T04:21:29;6.95;;;2.90;;
71353;SDS011;59393;51.652;4.864;2022-09-03T04:23:49;6.32;;;3.00;;
71353;SDS011;59393;51.652;4.864;2022-09-03T04:26:16;7.93;;;2.80;;
71353;SDS011;59393;51.652;4.864;2022-09-03T04:28:42;5.50;;;2.57;;
71353;SDS011;59393;51.652;4.864;2022-09-03T04:31:10;10.82;;;3.40;;
71353;SDS011;59393;51.652;4.864;2022-09-03T04:33:37;8.77;;;3.05;;
71353;SDS011;59393;51.652;4.864;2022-09-03T04:36:16;9.15;;;3.00;;
71353;SDS011;59393;51.652;4.864;2022-09-03T04:38:44;6.68;;;2.83;;
71353;SDS011;59393;51.652;4.864;2022-09-03T04:41:11;7.10;;;2.97;;
71353;SDS011;59393;51.652;4.864;2022-09-03T04:43:38;7.70;;;2.83;;
71353;SDS011;59393;51.652;4.864;2022-09-03T04:46:07;8.85;;;2.83;;
71353;SDS011;59393;51.652;4.864;2022-09-03T04:48:33;9.02;;;2.80;;
71353;SDS011;59393;51.652;4.864;2022-09-03T04:51:00;5.53;;;2.53;;
71353;SDS011;59393;51.652;4.864;2022-09-03T04:53:29;8.77;;;2.83;;
71353;SDS011;59393;51.652;4.864;2022-09-03T04:55:55;5.80;;;2.53;;
71353;SDS011;59393;51.652;4.864;2022-09-03T04:58:21;7.63;;;2.75;;
71353;SDS011;59393;51.652;4.864;2022-09-03T05:00:47;6.90;;;2.65;;
71353;SDS011;59393;51.652;4.864;2022-09-03T05:03:13;9.43;;;2.63;;
71353;SDS011;59393;51.652;4.864;2022-09-03T05:05:39;11.47;;;3.90;;
71353;SDS011;59393;51.652;4.864;2022-09-03T05:08:06;9.35;;;2.78;;
71353;SDS011;59393;51.652;4.864;2022-09-03T05:10:32;6.25;;;2.53;;
71353;SDS011;59393;51.652;4.864;2022-09-03T05:12:59;7.35;;;2.90;;
71353;SDS011;59393;51.652;4.864;2022-09-03T05:15:27;8.40;;;2.83;;
71353;SDS011;59393;51.652;4.864;2022-09-03T05:17:57;10.82;;;3.08;;
71353;SDS011;59393;51.652;4.864;2022-09-03T05:20:23;8.00;;;3.10;;
71353;SDS011;59393;51.652;4.864;2022-09-03T05:22:49;6.18;;;2.53;;
71353;SDS011;59393;51.652;4.864;2022-09-03T05:25:16;6.88;;;2.60;;
71353;SDS011;59393;51.652;4.864;2022-09-03T05:27:42;7.77;;;2.80;;
71353;SDS011;59393;51.652;4.864;2022-09-03T05:30:08;8.32;;;2.97;;
71353;SDS011;59393;51.652;4.864;2022-09-03T05:32:34;10.02;;;2.95;;
71353;SDS011;59393;51.652;4.864;2022-09-03T05:35:00;6.38;;;2.72;;
71353;SDS011;59393;51.652;4.864;2022-09-03T05:37:26;6.53;;;2.60;;
71353;SDS011;59393;51.652;4.864;2022-09-03T05:39:52;7.73;;;2.80;;
71353;SDS011;59393;51.652;4.864;2022-09-03T05:42:18;6.15;;;2.70;;
71353;SDS011;59393;51.652;4.864;2022-09-03T05:44:45;9.23;;;2.80;;
71353;SDS011;59393;51.652;4.864;2022-09-03T05:47:13;6.82;;;3.03;;
71353;SDS011;59393;51.652;4.864;2022-09-03T05:49:39;8.68;;;2.97;;
71353;SDS011;59393;51.652;4.864;2022-09-03T05:52:05;9.93;;;3.00;;
71353;SDS011;59393;51.652;4.864;2022-09-03T05:54:33;7.32;;;2.80;;
71353;SDS011;59393;51.652;4.864;2022-09-03T05:56:59;6.85;;;2.83;;
71353;SDS011;59393;51.652;4.864;2022-09-03T05:59:25;6.85;;;2.83;;
71353;SDS011;59393;51.652;4.864;2022-09-03T06:01:52;6.75;;;3.00;;
71353;SDS011;59393;51.652;4.864;2022-09-03T06:04:18;9.47;;;3.33;;
71353;SDS011;59393;51.652;4.864;2022-09-03T06:06:45;7.65;;;3.10;;
71353;SDS011;59393;51.652;4.864;2022-09-03T06:09:12;6.72;;;2.67;;
71353;SDS011;59393;51.652;4.864;2022-09-03T06:11:40;6.70;;;2.60;;
71353;SDS011;59393;51.652;4.864;2022-09-03T06:14:07;9.15;;;2.90;;
71353;SDS011;59393;51.652;4.864;2022-09-03T06:16:34;8.60;;;4.07;;
71353;SDS011;59393;51.652;4.864;2022-09-03T06:19:01;6.93;;;2.55;;
71353;SDS011;59393;51.652;4.864;2022-09-03T06:21:27;7.97;;;3.10;;
71353;SDS011;59393;51.652;4.864;2022-09-03T06:23:54;10.80;;;3.35;;
71353;SDS011;59393;51.652;4.864;2022-09-03T06:26:21;7.57;;;3.22;;
71353;SDS011;59393;51.652;4.864;2022-09-03T06:28:47;7.70;;;3.00;;
71353;SDS011;59393;51.652;4.864;2022-09-03T06:31:14;9.27;;;2.80;;
71353;SDS011;59393;51.652;4.864;2022-09-03T06:33:40;8.15;;;2.60;;
71353;SDS011;59393;51.652;4.864;2022-09-03T06:36:07;9.82;;;3.47;;
71353;SDS011;59393;51.652;4.864;2022-09-03T06:38:34;9.43;;;3.22;;
71353;SDS011;59393;51.652;4.864;2022-09-03T06:41:03;6.57;;;2.83;;
71353;SDS011;59393;51.652;4.864;2022-09-03T06:43:30;14.15;;;3.40;;
71353;SDS011;59393;51.652;4.864;2022-09-03T06:46:01;8.05;;;2.92;;
71353;SDS011;59393;51.652;4.864;2022-09-03T06:48:28;6.80;;;3.03;;
71353;SDS011;59393;51.652;4.864;2022-09-03T06:50:55;7.93;;;3.20;;
71353;SDS011;59393;51.652;4.864;2022-09-03T06:53:22;10.47;;;2.73;;
71353;SDS011;59393;51.652;4.864;2022-09-03T06:55:55;10.00;;;3.03;;
71353;SDS011;59393;51.652;4.864;2022-09-03T06:58:22;6.82;;;2.78;;
71353;SDS011;59393;51.652;4.864;2022-09-03T07:00:49;7.57;;;2.97;;
71353;SDS011;59393;51.652;4.864;2022-09-03T07:03:16;7.72;;;3.30;;
71353;SDS011;59393;51.652;4.864;2022-09-03T07:05:43;6.70;;;3.13;;
71353;SDS011;59393;51.652;4.864;2022-09-03T07:08:09;9.70;;;3.05;;
71353;SDS011;59393;51.652;4.864;2022-09-03T07:10:35;7.47;;;2.90;;
71353;SDS011;59393;51.652;4.864;2022-09-03T07:13:05;9.88;;;3.35;;
71353;SDS011;59393;51.652;4.864;2022-09-03T07:15:31;6.90;;;3.13;;
71353;SDS011;59393;51.652;4.864;2022-09-03T07:17:58;8.53;;;3.13;;
71353;SDS011;59393;51.652;4.864;2022-09-03T07:20:24;7.63;;;3.08;;
71353;SDS011;59393;51.652;4.864;2022-09-03T07:22:53;11.52;;;3.55;;
71353;SDS011;59393;51.652;4.864;2022-09-03T07:25:20;10.52;;;3.35;;
71353;SDS011;59393;51.652;4.864;2022-09-03T07:27:46;9.20;;;3.45;;
71353;SDS011;59393;51.652;4.864;2022-09-03T07:30:15;7.20;;;2.87;;
71353;SDS011;59393;51.652;4.864;2022-09-03T07:32:41;9.23;;;3.40;;
71353;SDS011;59393;51.652;4.864;2022-09-03T07:35:07;7.82;;;2.83;;
71353;SDS011;59393;51.652;4.864;2022-09-03T07:37:33;10.88;;;3.75;;
71353;SDS011;59393;51.652;4.864;2022-09-03T07:39:59;8.45;;;3.47;;
71353;SDS011;59393;51.652;4.864;2022-09-03T07:42:25;8.73;;;3.10;;
71353;SDS011;59393;51.652;4.864;2022-09-03T07:44:52;8.65;;;3.42;;
71353;SDS011;59393;51.652;4.864;2022-09-03T07:47:19;7.07;;;2.67;;
71353;SDS011;59393;51.652;4.864;2022-09-03T07:49:45;8.85;;;2.80;;
71353;SDS011;59393;51.652;4.864;2022-09-03T07:52:12;7.10;;;3.30;;
71353;SDS011;59393;51.652;4.864;2022-09-03T07:54:37;8.50;;;2.90;;
71353;SDS011;59393;51.652;4.864;2022-09-03T07:57:04;8.07;;;2.80;;
71353;SDS011;59393;51.652;4.864;2022-09-03T07:59:31;7.97;;;2.80;;
71353;SDS011;59393;51.652;4.864;2022-09-03T08:01:57;10.30;;;3.35;;
71353;SDS011;59393;51.652;4.864;2022-09-03T08:04:23;8.30;;;2.67;;
71353;SDS011;59393;51.652;4.864;2022-09-03T08:06:49;8.77;;;2.85;;
71353;SDS011;59393;51.652;4.864;2022-09-03T08:09:19;8.60;;;3.40;;
71353;SDS011;59393;51.652;4.864;2022-09-03T08:11:45;8.30;;;2.70;;
71353;SDS011;59393;51.652;4.864;2022-09-03T08:14:11;6.80;;;2.87;;
71353;SDS011;59393;51.652;4.864;2022-09-03T08:16:38;9.10;;;3.07;;
71353;SDS011;59393;51.652;4.864;2022-09-03T08:19:05;6.93;;;2.85;;
71353;SDS011;59393;51.652;4.864;2022-09-03T08:21:31;11.85;;;3.00;;
71353;SDS011;59393;51.652;4.864;2022-09-03T08:23:57;7.18;;;2.78;;
71353;SDS011;59393;51.652;4.864;2022-09-03T08:26:27;8.88;;;2.63;;
71353;SDS011;59393;51.652;4.864;2022-09-03T08:28:54;7.07;;;2.90;;
71353;SDS011;59393;51.652;4.864;2022-09-03T08:31:20;7.75;;;2.70;;
71353;SDS011;59393;51.652;4.864;2022-09-03T08:33:47;7.25;;;2.90;;
71353;SDS011;59393;51.652;4.864;2022-09-03T08:36:20;11.90;;;3.03;;
71353;SDS011;59393;51.652;4.864;2022-09-03T08:38:47;6.85;;;2.55;;
71353;SDS011;59393;51.652;4.864;2022-09-03T08:41:16;9.27;;;3.03;;
71353;SDS011;59393;51.652;4.864;2022-09-03T08:43:54;8.40;;;3.25;;
71353;SDS011;59393;51.652;4.864;2022-09-03T08:46:25;6.22;;;2.83;;
71353;SDS011;59393;51.652;4.864;2022-09-03T08:48:56;7.40;;;2.70;;
71353;SDS011;59393;51.652;4.864;2022-09-03T08:51:23;10.32;;;3.00;;
71353;SDS011;59393;51.652;4.864;2022-09-03T08:53:52;9.73;;;2.90;;
71353;SDS011;59393;51.652;4.864;2022-09-03T08:56:24;8.98;;;2.90;;
71353;SDS011;59393;51.652;4.864;2022-09-03T08:58:52;11.93;;;2.95;;
71353;SDS011;59393;51.652;4.864;2022-09-03T09:01:27;9.68;;;3.10;;
71353;SDS011;59393;51.652;4.864;2022-09-03T09:04:17;12.93;;;3.03;;
71353;SDS011;59393;51.652;4.864;2022-09-03T09:07:03;10.70;;;3.17;;
71353;SDS011;59393;51.652;4.864;2022-09-03T09:09:52;8.63;;;3.47;;
71353;SDS011;59393;51.652;4.864;2022-09-03T09:22:42;12.13;;;3.13;;
71353;SDS011;59393;51.652;4.864;2022-09-03T09:25:12;7.82;;;3.15;;
71353;SDS011;59393;51.652;4.864;2022-09-03T09:27:47;7.20;;;2.42;;
71353;SDS011;59393;51.652;4.864;2022-09-03T09:30:15;14.50;;;3.60;;
71353;SDS011;59393;51.652;4.864;2022-09-03T09:32:42;5.97;;;2.77;;
71353;SDS011;59393;51.652;4.864;2022-09-03T09:35:08;9.00;;;2.63;;
71353;SDS011;59393;51.652;4.864;2022-09-03T09:37:45;8.20;;;3.05;;
71353;SDS011;59393;51.652;4.864;2022-09-03T09:40:20;11.10;;;2.80;;
71353;SDS011;59393;51.652;4.864;2022-09-03T09:42:47;9.10;;;2.60;;
71353;SDS011;59393;51.652;4.864;2022-09-03T09:45:13;7.60;;;2.30;;
71353;SDS011;59393;51.652;4.864;2022-09-03T09:47:39;7.78;;;1.92;;
71353;SDS011;59393;51.652;4.864;2022-09-03T09:50:15;7.88;;;2.20;;
71353;SDS011;59393;51.652;4.864;2022-09-03T09:52:41;6.13;;;1.80;;
71353;SDS011;59393;51.652;4.864;2022-09-03T09:55:13;4.43;;;1.58;;
71353;SDS011;59393;51.652;4.864;2022-09-03T09:57:40;5.87;;;1.50;;
71353;SDS011;59393;51.652;4.864;2022-09-03T10:00:07;3.60;;;1.42;;
71353;SDS011;59393;51.652;4.864;2022-09-03T10:02:35;7.18;;;1.73;;
71353;SDS011;59393;51.652;4.864;2022-09-03T10:05:14;7.18;;;1.67;;
71353;SDS011;59393;51.652;4.864;2022-09-03T10:07:53;5.88;;;1.70;;
71353;SDS011;59393;51.652;4.864;2022-09-03T10:10:19;6.10;;;1.60;;
71353;SDS011;59393;51.652;4.864;2022-09-03T10:12:48;3.17;;;1.30;;
71353;SDS011;59393;51.652;4.864;2022-09-03T10:15:21;6.60;;;1.30;;
71353;SDS011;59393;51.652;4.864;2022-09-03T10:17:54;5.97;;;1.45;;
71353;SDS011;59393;51.652;4.864;2022-09-03T10:20:23;7.80;;;1.58;;
71353;SDS011;59393;51.652;4.864;2022-09-03T10:22:53;6.17;;;1.40;;
71353;SDS011;59393;51.652;4.864;2022-09-03T10:25:19;5.43;;;1.52;;
71353;SDS011;59393;51.652;4.864;2022-09-03T10:27:46;3.35;;;1.30;;
71353;SDS011;59393;51.652;4.864;2022-09-03T10:30:12;4.15;;;1.40;;
71353;SDS011;59393;51.652;4.864;2022-09-03T10:35:38;6.13;;;1.80;;
71353;SDS011;59393;51.652;4.864;2022-09-03T10:43:38;5.10;;;1.52;;
71353;SDS011;59393;51.652;4.864;2022-09-03T10:46:15;4.53;;;1.50;;
71353;SDS011;59393;51.652;4.864;2022-09-03T10:49:03;5.93;;;1.60;;
71353;SDS011;59393;51.652;4.864;2022-09-03T10:51:40;5.25;;;1.55;;
71353;SDS011;59393;51.652;4.864;2022-09-03T11:01:46;8.10;;;1.60;;
71353;SDS011;59393;51.652;4.864;2022-09-03T11:06:49;4.55;;;1.40;;
71353;SDS011;59393;51.652;4.864;2022-09-03T11:09:23;6.15;;;1.50;;
71353;SDS011;59393;51.652;4.864;2022-09-03T11:11:52;6.73;;;1.70;;
71353;SDS011;59393;51.652;4.864;2022-09-03T11:14:27;5.45;;;1.60;;
71353;SDS011;59393;51.652;4.864;2022-09-03T11:16:57;3.88;;;1.55;;
71353;SDS011;59393;51.652;4.864;2022-09-03T11:22:17;5.50;;;1.90;;
71353;SDS011;59393;51.652;4.864;2022-09-03T11:24:55;7.43;;;1.80;;
71353;SDS011;59393;51.652;4.864;2022-09-03T11:30:01;9.00;;;1.75;;
71353;SDS011;59393;51.652;4.864;2022-09-03T11:32:44;6.97;;;1.67;;
71353;SDS011;59393;51.652;4.864;2022-09-03T11:35:24;4.97;;;1.83;;
71353;SDS011;59393;51.652;4.864;2022-09-03T11:37:52;11.13;;;2.07;;
71353;SDS011;59393;51.652;4.864;2022-09-03T11:40:19;5.05;;;1.42;;
71353;SDS011;59393;51.652;4.864;2022-09-03T11:42:46;5.70;;;1.45;;
71353;SDS011;59393;51.652;4.864;2022-09-03T11:47:54;6.53;;;1.60;;
71353;SDS011;59393;51.652;4.864;2022-09-03T11:50:27;5.77;;;1.70;;
71353;SDS011;59393;51.652;4.864;2022-09-03T11:53:06;4.35;;;1.42;;
71353;SDS011;59393;51.652;4.864;2022-09-03T11:55:50;6.38;;;1.50;;
71353;SDS011;59393;51.652;4.864;2022-09-03T11:58:36;3.65;;;1.50;;
71353;SDS011;59393;51.652;4.864;2022-09-03T12:01:04;8.98;;;1.50;;
71353;SDS011;59393;51.652;4.864;2022-09-03T12:03:44;7.37;;;2.00;;
71353;SDS011;59393;51.652;4.864;2022-09-03T12:21:47;4.93;;;1.30;;
71353;SDS011;59393;51.652;4.864;2022-09-03T12:24:14;4.13;;;1.70;;
71353;SDS011;59393;51.652;4.864;2022-09-03T12:26:41;5.55;;;1.50;;
71353;SDS011;59393;51.652;4.864;2022-09-03T12:29:19;5.80;;;1.70;;
71353;SDS011;59393;51.652;4.864;2022-09-03T12:31:45;4.10;;;1.50;;
71353;SDS011;59393;51.652;4.864;2022-09-03T12:34:14;3.67;;;1.30;;
71353;SDS011;59393;51.652;4.864;2022-09-03T12:36:42;6.28;;;1.60;;
71353;SDS011;59393;51.652;4.864;2022-09-03T12:39:09;5.43;;;1.60;;
71353;SDS011;59393;51.652;4.864;2022-09-03T12:41:36;5.93;;;1.60;;
71353;SDS011;59393;51.652;4.864;2022-09-03T12:44:02;4.28;;;1.60;;
71353;SDS011;59393;51.652;4.864;2022-09-03T12:46:29;7.47;;;1.85;;
71353;SDS011;59393;51.652;4.864;2022-09-03T12:48:56;7.43;;;1.80;;
71353;SDS011;59393;51.652;4.864;2022-09-03T12:51:29;9.32;;;1.63;;
71353;SDS011;59393;51.652;4.864;2022-09-03T12:53:55;9.70;;;1.90;;
71353;SDS011;59393;51.652;4.864;2022-09-03T12:56:22;6.20;;;2.05;;
71353;SDS011;59393;51.652;4.864;2022-09-03T12:59:22;8.95;;;1.80;;
71353;SDS011;59393;51.652;4.864;2022-09-03T13:01:43;6.28;;;1.80;;
71353;SDS011;59393;51.652;4.864;2022-09-03T13:04:12;5.13;;;1.80;;
71353;SDS011;59393;51.652;4.864;2022-09-03T13:06:46;5.90;;;2.00;;
71353;SDS011;59393;51.652;4.864;2022-09-03T13:09:14;6.38;;;1.85;;
71353;SDS011;59393;51.652;4.864;2022-09-03T13:11:43;7.30;;;1.92;;
71353;SDS011;59393;51.652;4.864;2022-09-03T13:14:10;6.97;;;2.25;;
71353;SDS011;59393;51.652;4.864;2022-09-03T13:24:22;5.18;;;1.83;;
71353;SDS011;59393;51.652;4.864;2022-09-03T13:26:57;4.70;;;1.95;;
71353;SDS011;59393;51.652;4.864;2022-09-03T13:29:40;8.10;;;2.25;;
71353;SDS011;59393;51.652;4.864;2022-09-03T13:35:00;4.90;;;1.90;;
71353;SDS011;59393;51.652;4.864;2022-09-03T13:40:13;8.30;;;2.10;;
71353;SDS011;59393;51.652;4.864;2022-09-03T13:42:50;5.05;;;2.00;;
71353;SDS011;59393;51.652;4.864;2022-09-03T13:50:43;7.78;;;2.03;;
71353;SDS011;59393;51.652;4.864;2022-09-03T13:53:23;5.72;;;1.80;;
71353;SDS011;59393;51.652;4.864;2022-09-03T13:55:56;4.60;;;2.28;;
71353;SDS011;59393;51.652;4.864;2022-09-03T14:01:16;7.90;;;1.90;;
71353;SDS011;59393;51.652;4.864;2022-09-03T14:03:49;7.30;;;1.90;;
71353;SDS011;59393;51.652;4.864;2022-09-03T14:14:09;8.82;;;1.90;;
71353;SDS011;59393;51.652;4.864;2022-09-03T14:16:39;8.38;;;1.83;;
71353;SDS011;59393;51.652;4.864;2022-09-03T14:19:18;6.60;;;1.95;;
71353;SDS011;59393;51.652;4.864;2022-09-03T14:26:48;7.40;;;1.80;;
71353;SDS011;59393;51.652;4.864;2022-09-03T14:29:15;3.75;;;1.52;;
71353;SDS011;59393;51.652;4.864;2022-09-03T14:42:20;7.47;;;3.20;;
71353;SDS011;59393;51.652;4.864;2022-09-03T14:49:52;9.70;;;2.60;;
71353;SDS011;59393;51.652;4.864;2022-09-03T14:55:03;10.00;;;2.22;;
71353;SDS011;59393;51.652;4.864;2022-09-03T15:12:51;4.65;;;1.77;;
71353;SDS011;59393;51.652;4.864;2022-09-03T15:15:18;6.40;;;1.70;;
71353;SDS011;59393;51.652;4.864;2022-09-03T15:18:02;5.15;;;1.92;;
71353;SDS011;59393;51.652;4.864;2022-09-03T15:31:01;6.03;;;2.20;;
71353;SDS011;59393;51.652;4.864;2022-09-03T15:41:01;6.83;;;2.00;;
71353;SDS011;59393;51.652;4.864;2022-09-03T15:43:31;5.60;;;2.78;;
71353;SDS011;59393;51.652;4.864;2022-09-03T15:45:58;3.80;;;1.75;;
71353;SDS011;59393;51.652;4.864;2022-09-03T15:50:54;7.78;;;1.90;;
71353;SDS011;59393;51.652;4.864;2022-09-03T15:53:38;6.50;;;1.97;;
71353;SDS011;59393;51.652;4.864;2022-09-03T16:01:35;10.50;;;2.40;;
71353;SDS011;59393;51.652;4.864;2022-09-03T16:06:53;8.33;;;2.50;;
71353;SDS011;59393;51.652;4.864;2022-09-03T16:09:29;5.00;;;2.13;;
71353;SDS011;59393;51.652;4.864;2022-09-03T16:14:54;9.00;;;2.15;;
71353;SDS011;59393;51.652;4.864;2022-09-03T16:25:09;6.50;;;3.80;;
71353;SDS011;59393;51.652;4.864;2022-09-03T16:27:39;9.20;;;2.90;;
71353;SDS011;59393;51.652;4.864;2022-09-03T16:30:08;5.15;;;1.90;;
71353;SDS011;59393;51.652;4.864;2022-09-03T16:35:03;9.73;;;2.13;;
71353;SDS011;59393;51.652;4.864;2022-09-03T16:37:44;8.50;;;2.22;;
71353;SDS011;59393;51.652;4.864;2022-09-03T16:40:22;7.65;;;2.20;;
71353;SDS011;59393;51.652;4.864;2022-09-03T16:42:54;7.87;;;2.10;;
71353;SDS011;59393;51.652;4.864;2022-09-03T16:48:12;7.18;;;2.05;;
71353;SDS011;59393;51.652;4.864;2022-09-03T16:53:30;5.53;;;1.88;;
71353;SDS011;59393;51.652;4.864;2022-09-03T17:08:42;7.97;;;2.50;;
71353;SDS011;59393;51.652;4.864;2022-09-03T17:19:31;7.35;;;2.58;;
71353;SDS011;59393;51.652;4.864;2022-09-03T17:24:39;6.75;;;2.80;;
71353;SDS011;59393;51.652;4.864;2022-09-03T17:27:19;7.30;;;2.75;;
71353;SDS011;59393;51.652;4.864;2022-09-03T17:30:40;6.90;;;2.20;;
71353;SDS011;59393;51.652;4.864;2022-09-03T17:35:45;10.40;;;2.73;;
71353;SDS011;59393;51.652;4.864;2022-09-03T17:44:20;12.23;;;2.08;;
71353;SDS011;59393;51.652;4.864;2022-09-03T17:49:17;7.93;;;2.33;;
71353;SDS011;59393;51.652;4.864;2022-09-03T17:51:46;13.52;;;1.95;;
71353;SDS011;59393;51.652;4.864;2022-09-03T17:54:33;5.85;;;1.92;;
71353;SDS011;59393;51.652;4.864;2022-09-03T17:57:16;6.47;;;1.90;;
71353;SDS011;59393;51.652;4.864;2022-09-03T17:59:51;7.87;;;2.20;;
71353;SDS011;59393;51.652;4.864;2022-09-03T18:05:09;7.13;;;2.88;;
71353;SDS011;59393;51.652;4.864;2022-09-03T18:10:18;8.18;;;4.20;;
71353;SDS011;59393;51.652;4.864;2022-09-03T18:12:50;10.20;;;4.40;;
71353;SDS011;59393;51.652;4.864;2022-09-03T18:15:24;9.55;;;2.75;;
71353;SDS011;59393;51.652;4.864;2022-09-03T18:17:57;6.88;;;2.30;;
71353;SDS011;59393;51.652;4.864;2022-09-03T18:20:24;5.50;;;2.30;;
71353;SDS011;59393;51.652;4.864;2022-09-03T18:26:24;5.53;;;2.03;;
71353;SDS011;59393;51.652;4.864;2022-09-03T18:29:16;9.88;;;2.40;;
71353;SDS011;59393;51.652;4.864;2022-09-03T18:32:04;6.03;;;2.60;;
71353;SDS011;59393;51.652;4.864;2022-09-03T18:34:48;8.63;;;2.05;;
71353;SDS011;59393;51.652;4.864;2022-09-03T18:37:33;6.63;;;2.30;;
71353;SDS011;59393;51.652;4.864;2022-09-03T18:40:23;6.87;;;2.10;;
71353;SDS011;59393;51.652;4.864;2022-09-03T18:43:13;6.28;;;1.90;;
71353;SDS011;59393;51.652;4.864;2022-09-03T18:46:13;6.65;;;2.00;;
71353;SDS011;59393;51.652;4.864;2022-09-03T18:49:02;11.23;;;2.30;;
71353;SDS011;59393;51.652;4.864;2022-09-03T18:55:40;7.77;;;2.50;;
71353;SDS011;59393;51.652;4.864;2022-09-03T18:57:58;6.68;;;2.42;;
71353;SDS011;59393;51.652;4.864;2022-09-03T19:01:07;7.85;;;2.47;;
71353;SDS011;59393;51.652;4.864;2022-09-03T19:04:03;6.00;;;2.50;;
71353;SDS011;59393;51.652;4.864;2022-09-03T19:07:02;7.28;;;2.55;;
71353;SDS011;59393;51.652;4.864;2022-09-03T19:10:07;7.33;;;2.60;;
71353;SDS011;59393;51.652;4.864;2022-09-03T19:13:09;10.35;;;3.53;;
71353;SDS011;59393;51.652;4.864;2022-09-03T19:15:58;8.80;;;3.90;;
71353;SDS011;59393;51.652;4.864;2022-09-03T19:19:05;10.13;;;3.95;;
71353;SDS011;59393;51.652;4.864;2022-09-03T19:22:15;11.02;;;4.10;;
71353;SDS011;59393;51.652;4.864;2022-09-03T19:25:03;9.10;;;3.80;;
71353;SDS011;59393;51.652;4.864;2022-09-03T19:27:56;11.57;;;4.65;;
71353;SDS011;59393;51.652;4.864;2022-09-03T19:33:37;7.68;;;3.50;;
71353;SDS011;59393;51.652;4.864;2022-09-03T19:42:14;8.13;;;3.10;;
71353;SDS011;59393;51.652;4.864;2022-09-03T19:45:06;5.68;;;2.50;;
71353;SDS011;59393;51.652;4.864;2022-09-03T19:50:59;10.13;;;2.47;;
71353;SDS011;59393;51.652;4.864;2022-09-03T19:53:46;5.30;;;2.57;;